sensor_id;sensor_type;location;lat;lon;timestamp;P1;P2;P0
71858;PMS5003;59713;50.866;4.324;2022-12-13T00:02:53;40;34;
71858;PMS5003;59713;50.866;4.324;2022-12-13T00:05:53;45;36;
71858;PMS5003;59713;50.866;4.324;2022-12-13T00:08:53;44;33;
71858;PMS5003;59713;50.866;4.324;2022-12-13T00:11:53;41;35;
71858;PMS5003;59713;50.866;4.324;2022-12-13T00:14:53;40;32;
71858;PMS5003;59713;50.866;4.324;2022-12-13T00:17:53;41;35;
71858;PMS5003;59713;50.866;4.324;2022-12-13T00:20:53;46;36;
71858;PMS5003;59713;50.866;4.324;2022-12-13T00:23:53;40;34;
71858;PMS5003;59713;50.866;4.324;2022-12-13T00:26:53;42;35;
71858;PMS5003;59713;50.866;4.324;2022-12-13T00:29:53;46;36;
71858;PMS5003;59713;50.866;4.324;2022-12-13T00:32:53;47;37;
71858;PMS5003;59713;50.866;4.324;2022-12-13T00:35:53;40;35;
71858;PMS5003;59713;50.866;4.324;2022-12-13T00:38:53;47;37;
71858;PMS5003;59713;50.866;4.324;2022-12-13T00:41:53;41;36;
71858;PMS5003;59713;50.866;4.324;2022-12-13T00:44:57;37;31;
71858;PMS5003;59713;50.866;4.324;2022-12-13T00:47:53;45;36;
71858;PMS5003;59713;50.866;4.324;2022-12-13T00:50:53;37;31;
71858;PMS5003;59713;50.866;4.324;2022-12-13T00:53:53;38;32;
71858;PMS5003;59713;50.866;4.324;2022-12-13T00:56:53;40;33;
71858;PMS5003;59713;50.866;4.324;2022-12-13T00:59:53;38;32;
71858;PMS5003;59713;50.866;4.324;2022-12-13T01:02:53;48;35;
71858;PMS5003;59713;50.866;4.324;2022-12-13T01:05:55;41;35;
71858;PMS5003;59713;50.866;4.324;2022-12-13T01:08:53;43;35;
71858;PMS5003;59713;50.866;4.324;2022-12-13T01:11:55;45;36;
71858;PMS5003;59713;50.866;4.324;2022-12-13T01:14:53;42;34;
71858;PMS5003;59713;50.866;4.324;2022-12-13T01:17:53;44;32;
71858;PMS5003;59713;50.866;4.324;2022-12-13T01:20:57;45;35;
71858;PMS5003;59713;50.866;4.324;2022-12-13T01:23:53;42;33;
71858;PMS5003;59713;50.866;4.324;2022-12-13T01:26:53;45;35;
71858;PMS5003;59713;50.866;4.324;2022-12-13T01:29:53;43;35;
71858;PMS5003;59713;50.866;4.324;2022-12-13T01:33:53;42;32;
71858;PMS5003;59713;50.866;4.324;2022-12-13T01:35:53;37;33;
71858;PMS5003;59713;50.866;4.324;2022-12-13T01:38:53;35;32;
71858;PMS5003;59713;50.866;4.324;2022-12-13T01:41:54;39;33;
71858;PMS5003;59713;50.866;4.324;2022-12-13T01:47:53;37;32;
71858;PMS5003;59713;50.866;4.324;2022-12-13T01:50:54;42;35;
71858;PMS5003;59713;50.866;4.324;2022-12-13T01:53:53;44;30;
71858;PMS5003;59713;50.866;4.324;2022-12-13T01:56:53;41;32;
71858;PMS5003;59713;50.866;4.324;2022-12-13T02:00:53;46;35;
71858;PMS5003;59713;50.866;4.324;2022-12-13T02:02:53;44;36;
71858;PMS5003;59713;50.866;4.324;2022-12-13T02:05:55;40;32;
71858;PMS5003;59713;50.866;4.324;2022-12-13T02:08:53;39;32;
71858;PMS5003;59713;50.866;4.324;2022-12-13T02:11:53;43;33;
71858;PMS5003;59713;50.866;4.324;2022-12-13T02:14:53;40;34;
71858;PMS5003;59713;50.866;4.324;2022-12-13T02:17:59;44;35;
71858;PMS5003;59713;50.866;4.324;2022-12-13T02:22:01;42;33;
71858;PMS5003;59713;50.866;4.324;2022-12-13T02:24:00;38;28;
71858;PMS5003;59713;50.866;4.324;2022-12-13T02:26:55;42;32;
71858;PMS5003;59713;50.866;4.324;2022-12-13T02:30:07;35;31;
71858;PMS5003;59713;50.866;4.324;2022-12-13T02:33:01;33;31;
71858;PMS5003;59713;50.866;4.324;2022-12-13T02:35:56;42;33;
71858;PMS5003;59713;50.866;4.324;2022-12-13T02:38:55;39;32;
71858;PMS5003;59713;50.866;4.324;2022-12-13T02:41:55;35;27;
71858;PMS5003;59713;50.866;4.324;2022-12-13T02:44:54;39;32;
71858;PMS5003;59713;50.866;4.324;2022-12-13T02:47:53;36;31;
71858;PMS5003;59713;50.866;4.324;2022-12-13T02:50:53;37;32;
71858;PMS5003;59713;50.866;4.324;2022-12-13T02:53:53;34;29;
71858;PMS5003;59713;50.866;4.324;2022-12-13T02:57:53;42;32;
71858;PMS5003;59713;50.866;4.324;2022-12-13T02:59:53;28;26;
71858;PMS5003;59713;50.866;4.324;2022-12-13T03:02:57;38;32;
71858;PMS5003;59713;50.866;4.324;2022-12-13T03:06:56;37;32;
71858;PMS5003;59713;50.866;4.324;2022-12-13T03:08:54;20;20;
71858;PMS5003;59713;50.866;4.324;2022-12-13T03:12:00;37;32;
71858;PMS5003;59713;50.866;4.324;2022-12-13T03:17:54;28;27;
71858;PMS5003;59713;50.866;4.324;2022-12-13T03:21:01;30;24;
71858;PMS5003;59713;50.866;4.324;2022-12-13T03:23:53;35;29;
71858;PMS5003;59713;50.866;4.324;2022-12-13T03:26:53;39;32;
71858;PMS5003;59713;50.866;4.324;2022-12-13T03:29:53;37;33;
71858;PMS5003;59713;50.866;4.324;2022-12-13T03:32:55;30;25;
71858;PMS5003;59713;50.866;4.324;2022-12-13T03:35:53;29;26;
71858;PMS5003;59713;50.866;4.324;2022-12-13T03:38:53;32;28;
71858;PMS5003;59713;50.866;4.324;2022-12-13T03:41:55;30;29;
71858;PMS5003;59713;50.866;4.324;2022-12-13T03:44:53;31;29;
71858;PMS5003;59713;50.866;4.324;2022-12-13T03:47:53;30;28;
71858;PMS5003;59713;50.866;4.324;2022-12-13T03:50:53;35;32;
71858;PMS5003;59713;50.866;4.324;2022-12-13T03:53:53;37;30;
71858;PMS5003;59713;50.866;4.324;2022-12-13T03:56:53;33;29;
71858;PMS5003;59713;50.866;4.324;2022-12-13T03:59:53;26;26;
71858;PMS5003;59713;50.866;4.324;2022-12-13T04:02:53;32;28;
71858;PMS5003;59713;50.866;4.324;2022-12-13T04:05:53;38;29;
71858;PMS5003;59713;50.866;4.324;2022-12-13T04:08:53;33;31;
71858;PMS5003;59713;50.866;4.324;2022-12-13T04:11:53;34;30;
71858;PMS5003;59713;50.866;4.324;2022-12-13T04:14:53;38;32;
71858;PMS5003;59713;50.866;4.324;2022-12-13T04:17:53;35;30;
71858;PMS5003;59713;50.866;4.324;2022-12-13T04:20:53;44;33;
71858;PMS5003;59713;50.866;4.324;2022-12-13T04:23:53;25;21;
71858;PMS5003;59713;50.866;4.324;2022-12-13T04:26:53;37;33;
71858;PMS5003;59713;50.866;4.324;2022-12-13T04:29:53;34;30;
71858;PMS5003;59713;50.866;4.324;2022-12-13T04:32:55;36;32;
71858;PMS5003;59713;50.866;4.324;2022-12-13T04:35:53;40;32;
71858;PMS5003;59713;50.866;4.324;2022-12-13T04:38:53;45;35;
71858;PMS5003;59713;50.866;4.324;2022-12-13T04:41:53;43;35;
71858;PMS5003;59713;50.866;4.324;2022-12-13T04:47:53;42;35;
71858;PMS5003;59713;50.866;4.324;2022-12-13T04:50:53;39;32;
71858;PMS5003;59713;50.866;4.324;2022-12-13T04:53:53;46;34;
71858;PMS5003;59713;50.866;4.324;2022-12-13T04:56:53;48;36;
71858;PMS5003;59713;50.866;4.324;2022-12-13T04:59:53;42;35;
71858;PMS5003;59713;50.866;4.324;2022-12-13T05:02:53;44;35;
71858;PMS5003;59713;50.866;4.324;2022-12-13T05:05:53;36;32;
71858;PMS5003;59713;50.866;4.324;2022-12-13T05:08:53;44;36;
71858;PMS5003;59713;50.866;4.324;2022-12-13T05:11:53;36;31;
71858;PMS5003;59713;50.866;4.324;2022-12-13T05:14:53;40;32;
71858;PMS5003;59713;50.866;4.324;2022-12-13T05:17:54;39;32;
71858;PMS5003;59713;50.866;4.324;2022-12-13T05:23:54;44;34;
71858;PMS5003;59713;50.866;4.324;2022-12-13T05:26:53;43;34;
71858;PMS5003;59713;50.866;4.324;2022-12-13T05:32:53;37;32;
71858;PMS5003;59713;50.866;4.324;2022-12-13T05:35:53;41;32;
71858;PMS5003;59713;50.866;4.324;2022-12-13T05:38:53;44;34;
71858;PMS5003;59713;50.866;4.324;2022-12-13T05:41:54;38;32;
71858;PMS5003;59713;50.866;4.324;2022-12-13T05:44:53;40;33;
71858;PMS5003;59713;50.866;4.324;2022-12-13T05:47:53;36;32;
71858;PMS5003;59713;50.866;4.324;2022-12-13T05:50:53;40;30;
71858;PMS5003;59713;50.866;4.324;2022-12-13T05:53:54;39;34;
71858;PMS5003;59713;50.866;4.324;2022-12-13T05:56:53;45;33;
71858;PMS5003;59713;50.866;4.324;2022-12-13T05:59:53;42;33;
71858;PMS5003;59713;50.866;4.324;2022-12-13T06:02:53;43;34;
71858;PMS5003;59713;50.866;4.324;2022-12-13T06:05:53;29;25;
71858;PMS5003;59713;50.866;4.324;2022-12-13T06:08:53;39;33;
71858;PMS5003;59713;50.866;4.324;2022-12-13T06:11:53;42;33;
71858;PMS5003;59713;50.866;4.324;2022-12-13T06:14:53;45;39;
71858;PMS5003;59713;50.866;4.324;2022-12-13T06:20:55;43;34;
71858;PMS5003;59713;50.866;4.324;2022-12-13T06:23:53;39;33;
71858;PMS5003;59713;50.866;4.324;2022-12-13T06:26:53;36;32;
71858;PMS5003;59713;50.866;4.324;2022-12-13T06:29:53;35;32;
71858;PMS5003;59713;50.866;4.324;2022-12-13T06:32:53;39;33;
71858;PMS5003;59713;50.866;4.324;2022-12-13T06:35:55;40;33;
71858;PMS5003;59713;50.866;4.324;2022-12-13T06:38:53;38;30;
71858;PMS5003;59713;50.866;4.324;2022-12-13T06:41:54;46;36;
71858;PMS5003;59713;50.866;4.324;2022-12-13T06:44:53;36;32;
71858;PMS5003;59713;50.866;4.324;2022-12-13T06:47:54;48;37;
71858;PMS5003;59713;50.866;4.324;2022-12-13T06:51:53;39;33;
71858;PMS5003;59713;50.866;4.324;2022-12-13T06:53:54;46;35;
71858;PMS5003;59713;50.866;4.324;2022-12-13T06:56:55;29;27;
71858;PMS5003;59713;50.866;4.324;2022-12-13T06:59:53;43;35;
71858;PMS5003;59713;50.866;4.324;2022-12-13T07:02:53;46;36;
71858;PMS5003;59713;50.866;4.324;2022-12-13T07:05:53;34;31;
71858;PMS5003;59713;50.866;4.324;2022-12-13T07:08:54;32;30;
71858;PMS5003;59713;50.866;4.324;2022-12-13T07:11:53;43;34;
71858;PMS5003;59713;50.866;4.324;2022-12-13T07:14:54;46;36;
71858;PMS5003;59713;50.866;4.324;2022-12-13T07:20:53;48;36;
71858;PMS5003;59713;50.866;4.324;2022-12-13T07:23:54;42;34;
71858;PMS5003;59713;50.866;4.324;2022-12-13T07:26:53;46;33;
71858;PMS5003;59713;50.866;4.324;2022-12-13T07:29:53;34;30;
71858;PMS5003;59713;50.866;4.324;2022-12-13T07:32:53;45;35;
71858;PMS5003;59713;50.866;4.324;2022-12-13T07:35:58;46;34;
71858;PMS5003;59713;50.866;4.324;2022-12-13T07:41:54;40;33;
71858;PMS5003;59713;50.866;4.324;2022-12-13T07:44:53;43;34;
71858;PMS5003;59713;50.866;4.324;2022-12-13T07:47:54;46;36;
71858;PMS5003;59713;50.866;4.324;2022-12-13T07:50:54;48;36;
71858;PMS5003;59713;50.866;4.324;2022-12-13T07:53:53;46;35;
71858;PMS5003;59713;50.866;4.324;2022-12-13T07:56:53;42;35;
71858;PMS5003;59713;50.866;4.324;2022-12-13T08:02:54;43;35;
71858;PMS5003;59713;50.866;4.324;2022-12-13T08:05:57;42;35;
71858;PMS5003;59713;50.866;4.324;2022-12-13T08:08:54;37;32;
71858;PMS5003;59713;50.866;4.324;2022-12-13T08:11:53;47;36;
71858;PMS5003;59713;50.866;4.324;2022-12-13T08:14:54;49;39;
71858;PMS5003;59713;50.866;4.324;2022-12-13T08:17:54;45;38;
71858;PMS5003;59713;50.866;4.324;2022-12-13T08:20:56;36;33;
71858;PMS5003;59713;50.866;4.324;2022-12-13T08:23:53;35;29;
71858;PMS5003;59713;50.866;4.324;2022-12-13T08:26:54;43;35;
71858;PMS5003;59713;50.866;4.324;2022-12-13T08:29:54;47;35;
71858;PMS5003;59713;50.866;4.324;2022-12-13T08:32:53;46;35;
71858;PMS5003;59713;50.866;4.324;2022-12-13T08:35:54;39;32;
71858;PMS5003;59713;50.866;4.324;2022-12-13T08:38:54;41;36;
71858;PMS5003;59713;50.866;4.324;2022-12-13T08:41:53;44;36;
71858;PMS5003;59713;50.866;4.324;2022-12-13T08:44:54;46;37;
71858;PMS5003;59713;50.866;4.324;2022-12-13T08:47:55;38;33;
71858;PMS5003;59713;50.866;4.324;2022-12-13T08:50:57;42;33;
71858;PMS5003;59713;50.866;4.324;2022-12-13T08:53:54;45;33;
71858;PMS5003;59713;50.866;4.324;2022-12-13T08:56:54;46;35;
71858;PMS5003;59713;50.866;4.324;2022-12-13T08:59:54;36;33;
71858;PMS5003;59713;50.866;4.324;2022-12-13T09:02:55;37;30;
71858;PMS5003;59713;50.866;4.324;2022-12-13T09:05:54;43;36;
71858;PMS5003;59713;50.866;4.324;2022-12-13T09:08:54;46;34;
71858;PMS5003;59713;50.866;4.324;2022-12-13T09:11:54;48;38;
71858;PMS5003;59713;50.866;4.324;2022-12-13T09:14:54;41;35;
71858;PMS5003;59713;50.866;4.324;2022-12-13T09:17:54;39;32;
71858;PMS5003;59713;50.866;4.324;2022-12-13T09:20:55;43;33;
71858;PMS5003;59713;50.866;4.324;2022-12-13T09:23:54;46;37;
71858;PMS5003;59713;50.866;4.324;2022-12-13T09:26:54;45;35;
71858;PMS5003;59713;50.866;4.324;2022-12-13T09:29:54;41;33;
71858;PMS5003;59713;50.866;4.324;2022-12-13T09:35:54;47;36;
71858;PMS5003;59713;50.866;4.324;2022-12-13T09:41:55;45;36;
71858;PMS5003;59713;50.866;4.324;2022-12-13T09:44:54;37;32;
71858;PMS5003;59713;50.866;4.324;2022-12-13T09:47:54;35;33;
71858;PMS5003;59713;50.866;4.324;2022-12-13T09:50:54;46;35;
71858;PMS5003;59713;50.866;4.324;2022-12-13T09:53:54;39;33;
71858;PMS5003;59713;50.866;4.324;2022-12-13T09:56:54;41;33;
71858;PMS5003;59713;50.866;4.324;2022-12-13T09:59:54;40;33;
71858;PMS5003;59713;50.866;4.324;2022-12-13T10:02:54;43;34;
71858;PMS5003;59713;50.866;4.324;2022-12-13T10:05:56;41;34;
71858;PMS5003;59713;50.866;4.324;2022-12-13T10:08:54;45;33;
71858;PMS5003;59713;50.866;4.324;2022-12-13T10:11:54;39;33;
71858;PMS5003;59713;50.866;4.324;2022-12-13T10:14:54;47;34;
71858;PMS5003;59713;50.866;4.324;2022-12-13T10:17:54;44;32;
71858;PMS5003;59713;50.866;4.324;2022-12-13T10:20:54;46;36;
71858;PMS5003;59713;50.866;4.324;2022-12-13T10:23:54;45;34;
71858;PMS5003;59713;50.866;4.324;2022-12-13T10:26:54;43;35;
71858;PMS5003;59713;50.866;4.324;2022-12-13T10:29:55;45;33;
71858;PMS5003;59713;50.866;4.324;2022-12-13T10:32:54;48;37;
71858;PMS5003;59713;50.866;4.324;2022-12-13T10:36:03;38;33;
71858;PMS5003;59713;50.866;4.324;2022-12-13T10:38:54;40;33;
71858;PMS5003;59713;50.866;4.324;2022-12-13T10:42:01;41;33;
71858;PMS5003;59713;50.866;4.324;2022-12-13T10:45:07;46;34;
71858;PMS5003;59713;50.866;4.324;2022-12-13T10:47:54;37;29;
71858;PMS5003;59713;50.866;4.324;2022-12-13T10:53:54;30;30;
71858;PMS5003;59713;50.866;4.324;2022-12-13T10:56:54;32;29;
71858;PMS5003;59713;50.866;4.324;2022-12-13T10:59:54;39;33;
71858;PMS5003;59713;50.866;4.324;2022-12-13T11:02:54;41;33;
71858;PMS5003;59713;50.866;4.324;2022-12-13T11:06:01;26;23;
71858;PMS5003;59713;50.866;4.324;2022-12-13T11:08:54;34;30;
71858;PMS5003;59713;50.866;4.324;2022-12-13T11:11:55;36;29;
71858;PMS5003;59713;50.866;4.324;2022-12-13T11:14:54;34;32;
71858;PMS5003;59713;50.866;4.324;2022-12-13T11:17:54;32;30;
71858;PMS5003;59713;50.866;4.324;2022-12-13T11:20:55;38;33;
71858;PMS5003;59713;50.866;4.324;2022-12-13T11:23:54;37;31;
71858;PMS5003;59713;50.866;4.324;2022-12-13T11:26:56;39;33;
71858;PMS5003;59713;50.866;4.324;2022-12-13T11:29:58;33;30;
71858;PMS5003;59713;50.866;4.324;2022-12-13T11:32:58;35;30;
71858;PMS5003;59713;50.866;4.324;2022-12-13T11:35:57;34;29;
71858;PMS5003;59713;50.866;4.324;2022-12-13T11:38:58;32;26;
71858;PMS5003;59713;50.866;4.324;2022-12-13T11:44:57;35;32;
71858;PMS5003;59713;50.866;4.324;2022-12-13T11:47:56;34;30;
71858;PMS5003;59713;50.866;4.324;2022-12-13T11:53:55;33;30;
71858;PMS5003;59713;50.866;4.324;2022-12-13T11:56:54;36;30;
71858;PMS5003;59713;50.866;4.324;2022-12-13T11:59:56;33;28;
71858;PMS5003;59713;50.866;4.324;2022-12-13T12:02:55;37;32;
71858;PMS5003;59713;50.866;4.324;2022-12-13T12:05:54;39;32;
71858;PMS5003;59713;50.866;4.324;2022-12-13T12:08:55;35;32;
71858;PMS5003;59713;50.866;4.324;2022-12-13T12:11:56;41;32;
71858;PMS5003;59713;50.866;4.324;2022-12-13T12:14:55;37;30;
71858;PMS5003;59713;50.866;4.324;2022-12-13T12:17:54;36;31;
71858;PMS5003;59713;50.866;4.324;2022-12-13T12:20:59;35;30;
71858;PMS5003;59713;50.866;4.324;2022-12-13T12:23:57;29;26;
71858;PMS5003;59713;50.866;4.324;2022-12-13T12:26:57;35;30;
71858;PMS5003;59713;50.866;4.324;2022-12-13T12:30:04;29;29;
71858;PMS5003;59713;50.866;4.324;2022-12-13T12:32:57;31;26;
71858;PMS5003;59713;50.866;4.324;2022-12-13T12:35:57;45;33;
71858;PMS5003;59713;50.866;4.324;2022-12-13T12:38:59;49;35;
71858;PMS5003;59713;50.866;4.324;2022-12-13T12:41:59;45;34;
71858;PMS5003;59713;50.866;4.324;2022-12-13T12:44:59;50;36;
71858;PMS5003;59713;50.866;4.324;2022-12-13T12:47:56;32;30;
71858;PMS5003;59713;50.866;4.324;2022-12-13T12:50:55;29;28;
71858;PMS5003;59713;50.866;4.324;2022-12-13T12:53:57;33;30;
71858;PMS5003;59713;50.866;4.324;2022-12-13T12:56:56;28;22;
71858;PMS5003;59713;50.866;4.324;2022-12-13T12:59:58;38;32;
71858;PMS5003;59713;50.866;4.324;2022-12-13T13:02:56;31;27;
71858;PMS5003;59713;50.866;4.324;2022-12-13T13:05:55;42;33;
71858;PMS5003;59713;50.866;4.324;2022-12-13T13:08:54;35;29;
71858;PMS5003;59713;50.866;4.324;2022-12-13T13:11:54;41;30;
71858;PMS5003;59713;50.866;4.324;2022-12-13T13:14:54;37;30;
71858;PMS5003;59713;50.866;4.324;2022-12-13T13:17:54;38;32;
71858;PMS5003;59713;50.866;4.324;2022-12-13T13:21:15;34;30;
71858;PMS5003;59713;50.866;4.324;2022-12-13T13:24:03;32;29;
71858;PMS5003;59713;50.866;4.324;2022-12-13T13:26:54;28;27;
71858;PMS5003;59713;50.866;4.324;2022-12-13T13:30:00;25;20;
71858;PMS5003;59713;50.866;4.324;2022-12-13T13:32:55;33;28;
71858;PMS5003;59713;50.866;4.324;2022-12-13T13:35:54;26;25;
71858;PMS5003;59713;50.866;4.324;2022-12-13T13:38:54;42;32;
71858;PMS5003;59713;50.866;4.324;2022-12-13T13:42:07;18;15;
71858;PMS5003;59713;50.866;4.324;2022-12-13T13:44:59;36;30;
71858;PMS5003;59713;50.866;4.324;2022-12-13T13:47:58;20;20;
71858;PMS5003;59713;50.866;4.324;2022-12-13T13:54:01;30;28;
71858;PMS5003;59713;50.866;4.324;2022-12-13T13:57:13;34;31;
71858;PMS5003;59713;50.866;4.324;2022-12-13T14:03:06;34;31;
71858;PMS5003;59713;50.866;4.324;2022-12-13T14:06:01;32;30;
71858;PMS5003;59713;50.866;4.324;2022-12-13T14:12:01;45;33;
71858;PMS5003;59713;50.866;4.324;2022-12-13T14:18:04;32;28;
71858;PMS5003;59713;50.866;4.324;2022-12-13T14:23:58;28;26;
71858;PMS5003;59713;50.866;4.324;2022-12-13T14:26:57;32;29;
71858;PMS5003;59713;50.866;4.324;2022-12-13T14:29:54;34;27;
71858;PMS5003;59713;50.866;4.324;2022-12-13T14:32:54;45;33;
71858;PMS5003;59713;50.866;4.324;2022-12-13T14:35:55;44;35;
71858;PMS5003;59713;50.866;4.324;2022-12-13T14:38:58;35;32;
71858;PMS5003;59713;50.866;4.324;2022-12-13T14:41:55;36;32;
71858;PMS5003;59713;50.866;4.324;2022-12-13T14:44:54;37;28;
71858;PMS5003;59713;50.866;4.324;2022-12-13T14:50:54;39;32;
71858;PMS5003;59713;50.866;4.324;2022-12-13T14:53:54;38;32;
71858;PMS5003;59713;50.866;4.324;2022-12-13T14:56:55;37;32;
71858;PMS5003;59713;50.866;4.324;2022-12-13T14:59:55;43;33;
71858;PMS5003;59713;50.866;4.324;2022-12-13T15:02:55;36;32;
71858;PMS5003;59713;50.866;4.324;2022-12-13T15:05:55;37;27;
71858;PMS5003;59713;50.866;4.324;2022-12-13T15:08:54;42;32;
71858;PMS5003;59713;50.866;4.324;2022-12-13T15:11:54;48;35;
71858;PMS5003;59713;50.866;4.324;2022-12-13T15:14:55;44;35;
71858;PMS5003;59713;50.866;4.324;2022-12-13T15:18:15;48;37;
71858;PMS5003;59713;50.866;4.324;2022-12-13T15:20:55;42;35;
71858;PMS5003;59713;50.866;4.324;2022-12-13T15:23:54;49;39;
71858;PMS5003;59713;50.866;4.324;2022-12-13T15:26:54;44;33;
71858;PMS5003;59713;50.866;4.324;2022-12-13T15:29:54;45;35;
71858;PMS5003;59713;50.866;4.324;2022-12-13T15:36:07;40;35;
71858;PMS5003;59713;50.866;4.324;2022-12-13T15:38:58;46;36;
71858;PMS5003;59713;50.866;4.324;2022-12-13T15:41:54;45;36;
71858;PMS5003;59713;50.866;4.324;2022-12-13T15:44:55;50;39;
71858;PMS5003;59713;50.866;4.324;2022-12-13T15:47:54;49;38;
71858;PMS5003;59713;50.866;4.324;2022-12-13T15:51:07;46;37;
71858;PMS5003;59713;50.866;4.324;2022-12-13T15:54:03;51;37;
71858;PMS5003;59713;50.866;4.324;2022-12-13T15:56:57;49;39;
71858;PMS5003;59713;50.866;4.324;2022-12-13T16:00:03;53;39;
71858;PMS5003;59713;50.866;4.324;2022-12-13T16:02:55;48;37;
71858;PMS5003;59713;50.866;4.324;2022-12-13T16:05:54;47;38;
71858;PMS5003;59713;50.866;4.324;2022-12-13T16:08:55;39;32;
71858;PMS5003;59713;50.866;4.324;2022-12-13T16:11:55;50;38;
71858;PMS5003;59713;50.866;4.324;2022-12-13T16:15:04;49;39;
71858;PMS5003;59713;50.866;4.324;2022-12-13T16:17:55;50;38;
71858;PMS5003;59713;50.866;4.324;2022-12-13T16:20:55;47;35;
71858;PMS5003;59713;50.866;4.324;2022-12-13T16:23:56;54;41;
71858;PMS5003;59713;50.866;4.324;2022-12-13T16:26:56;53;39;
71858;PMS5003;59713;50.866;4.324;2022-12-13T16:29:54;54;42;
71858;PMS5003;59713;50.866;4.324;2022-12-13T16:32:54;49;39;
71858;PMS5003;59713;50.866;4.324;2022-12-13T16:38:54;61;43;
71858;PMS5003;59713;50.866;4.324;2022-12-13T16:41:54;50;38;
71858;PMS5003;59713;50.866;4.324;2022-12-13T16:44:54;49;40;
71858;PMS5003;59713;50.866;4.324;2022-12-13T16:47:54;47;38;
71858;PMS5003;59713;50.866;4.324;2022-12-13T16:50:54;52;40;
71858;PMS5003;59713;50.866;4.324;2022-12-13T16:53:54;51;38;
71858;PMS5003;59713;50.866;4.324;2022-12-13T16:56:54;47;36;
71858;PMS5003;59713;50.866;4.324;2022-12-13T16:59:54;48;38;
71858;PMS5003;59713;50.866;4.324;2022-12-13T17:02:55;53;41;
71858;PMS5003;59713;50.866;4.324;2022-12-13T17:05:54;49;39;
71858;PMS5003;59713;50.866;4.324;2022-12-13T17:08:54;47;36;
71858;PMS5003;59713;50.866;4.324;2022-12-13T17:11:54;50;39;
71858;PMS5003;59713;50.866;4.324;2022-12-13T17:14:54;44;35;
71858;PMS5003;59713;50.866;4.324;2022-12-13T17:17:54;47;38;
71858;PMS5003;59713;50.866;4.324;2022-12-13T17:20:54;39;33;
71858;PMS5003;59713;50.866;4.324;2022-12-13T17:23:55;51;36;
71858;PMS5003;59713;50.866;4.324;2022-12-13T17:26:54;47;38;
71858;PMS5003;59713;50.866;4.324;2022-12-13T17:29:54;53;39;
71858;PMS5003;59713;50.866;4.324;2022-12-13T17:32:56;51;42;
71858;PMS5003;59713;50.866;4.324;2022-12-13T17:35:54;52;40;
71858;PMS5003;59713;50.866;4.324;2022-12-13T17:38:54;55;44;
71858;PMS5003;59713;50.866;4.324;2022-12-13T17:41:54;53;40;
71858;PMS5003;59713;50.866;4.324;2022-12-13T17:44:54;52;40;
71858;PMS5003;59713;50.866;4.324;2022-12-13T17:47:54;50;38;
71858;PMS5003;59713;50.866;4.324;2022-12-13T17:50:54;52;37;
71858;PMS5003;59713;50.866;4.324;2022-12-13T17:53:54;47;39;
71858;PMS5003;59713;50.866;4.324;2022-12-13T17:56:54;48;39;
71858;PMS5003;59713;50.866;4.324;2022-12-13T17:59:54;53;40;
71858;PMS5003;59713;50.866;4.324;2022-12-13T18:02:54;46;38;
71858;PMS5003;59713;50.866;4.324;2022-12-13T18:05:59;47;37;
71858;PMS5003;59713;50.866;4.324;2022-12-13T18:08:54;50;41;
71858;PMS5003;59713;50.866;4.324;2022-12-13T18:11:54;49;41;
71858;PMS5003;59713;50.866;4.324;2022-12-13T18:14:55;53;42;
71858;PMS5003;59713;50.866;4.324;2022-12-13T18:17:55;57;40;
71858;PMS5003;59713;50.866;4.324;2022-12-13T18:20:54;53;43;
71858;PMS5003;59713;50.866;4.324;2022-12-13T18:23:54;51;41;
71858;PMS5003;59713;50.866;4.324;2022-12-13T18:26:54;54;42;
71858;PMS5003;59713;50.866;4.324;2022-12-13T18:29:54;51;41;
71858;PMS5003;59713;50.866;4.324;2022-12-13T18:32:56;54;43;
71858;PMS5003;59713;50.866;4.324;2022-12-13T18:35:54;52;40;
71858;PMS5003;59713;50.866;4.324;2022-12-13T18:38:55;51;38;
71858;PMS5003;59713;50.866;4.324;2022-12-13T18:41:54;53;41;
71858;PMS5003;59713;50.866;4.324;2022-12-13T18:44:56;52;41;
71858;PMS5003;59713;50.866;4.324;2022-12-13T18:47:54;47;40;
71858;PMS5003;59713;50.866;4.324;2022-12-13T18:50:56;50;38;
71858;PMS5003;59713;50.866;4.324;2022-12-13T18:53:54;52;40;
71858;PMS5003;59713;50.866;4.324;2022-12-13T18:56:54;54;43;
71858;PMS5003;59713;50.866;4.324;2022-12-13T18:59:54;51;40;
71858;PMS5003;59713;50.866;4.324;2022-12-13T19:02:54;55;41;
71858;PMS5003;59713;50.866;4.324;2022-12-13T19:05:54;51;41;
71858;PMS5003;59713;50.866;4.324;2022-12-13T19:08:55;49;39;
71858;PMS5003;59713;50.866;4.324;2022-12-13T19:14:54;45;36;
71858;PMS5003;59713;50.866;4.324;2022-12-13T19:17:55;46;36;
71858;PMS5003;59713;50.866;4.324;2022-12-13T19:20:54;49;38;
71858;PMS5003;59713;50.866;4.324;2022-12-13T19:23:56;47;41;
71858;PMS5003;59713;50.866;4.324;2022-12-13T19:26:55;50;39;
71858;PMS5003;59713;50.866;4.324;2022-12-13T19:29:54;53;41;
71858;PMS5003;59713;50.866;4.324;2022-12-13T19:32:54;51;38;
71858;PMS5003;59713;50.866;4.324;2022-12-13T19:35:56;50;40;
71858;PMS5003;59713;50.866;4.324;2022-12-13T19:38:54;48;38;
71858;PMS5003;59713;50.866;4.324;2022-12-13T19:41:54;52;39;
71858;PMS5003;59713;50.866;4.324;2022-12-13T19:44:54;49;37;
71858;PMS5003;59713;50.866;4.324;2022-12-13T19:47:54;50;36;
71858;PMS5003;59713;50.866;4.324;2022-12-13T19:50:56;46;38;
71858;PMS5003;59713;50.866;4.324;2022-12-13T19:56:55;50;41;
71858;PMS5003;59713;50.866;4.324;2022-12-13T19:59:56;59;43;
71858;PMS5003;59713;50.866;4.324;2022-12-13T20:02:55;53;42;
71858;PMS5003;59713;50.866;4.324;2022-12-13T20:05:55;52;40;
71858;PMS5003;59713;50.866;4.324;2022-12-13T20:11:55;47;38;
71858;PMS5003;59713;50.866;4.324;2022-12-13T20:14:55;53;40;
71858;PMS5003;59713;50.866;4.324;2022-12-13T20:17:55;46;36;
71858;PMS5003;59713;50.866;4.324;2022-12-13T20:20:59;42;35;
71858;PMS5003;59713;50.866;4.324;2022-12-13T20:23:55;48;40;
71858;PMS5003;59713;50.866;4.324;2022-12-13T20:26:55;50;39;
71858;PMS5003;59713;50.866;4.324;2022-12-13T20:29:55;41;34;
71858;PMS5003;59713;50.866;4.324;2022-12-13T20:32:55;43;37;
71858;PMS5003;59713;50.866;4.324;2022-12-13T20:35:59;45;35;
71858;PMS5003;59713;50.866;4.324;2022-12-13T20:38:55;46;40;
71858;PMS5003;59713;50.866;4.324;2022-12-13T20:41:55;45;38;
71858;PMS5003;59713;50.866;4.324;2022-12-13T20:44:55;43;34;
71858;PMS5003;59713;50.866;4.324;2022-12-13T20:47:55;41;36;
71858;PMS5003;59713;50.866;4.324;2022-12-13T20:50:57;44;35;
71858;PMS5003;59713;50.866;4.324;2022-12-13T20:53:55;46;33;
71858;PMS5003;59713;50.866;4.324;2022-12-13T20:56:55;45;33;
71858;PMS5003;59713;50.866;4.324;2022-12-13T20:59:55;38;32;
71858;PMS5003;59713;50.866;4.324;2022-12-13T21:02:55;45;36;
71858;PMS5003;59713;50.866;4.324;2022-12-13T21:05:55;40;32;
71858;PMS5003;59713;50.866;4.324;2022-12-13T21:08:55;47;39;
71858;PMS5003;59713;50.866;4.324;2022-12-13T21:11:55;40;35;